createdAt,value
2023-02-14T00:01:35.048Z,1.13
2023-02-14T00:04:09.177Z,0.80
2023-02-14T00:06:38.899Z,0.90
2023-02-14T00:09:19.051Z,0.70
2023-02-14T00:11:46.633Z,0.70
2023-02-14T00:14:40.085Z,0.57
2023-02-14T00:17:07.611Z,1.13
2023-02-14T00:19:42.074Z,0.80
2023-02-14T00:22:30.023Z,0.43
2023-02-14T00:25:05.045Z,2.13
2023-02-14T00:27:41.037Z,0.80
2023-02-14T00:30:18.079Z,1.03
2023-02-14T00:32:52.056Z,0.33
2023-02-14T00:35:19.470Z,0.30
2023-02-14T00:37:57.058Z,0.37
2023-02-14T00:40:31.030Z,0.30
2023-02-14T00:43:06.060Z,1.77
2023-02-14T00:45:40.143Z,0.50
2023-02-14T00:48:07.552Z,0.30
2023-02-14T00:50:41.050Z,0.40
2023-02-14T00:53:08.400Z,0.40
2023-02-14T00:55:42.035Z,0.60
2023-02-14T00:58:09.462Z,0.40
2023-02-14T01:00:36.889Z,0.33
2023-02-14T01:03:11.074Z,1.13
2023-02-14T01:05:45.059Z,0.10
2023-02-14T01:08:19.040Z,0.43
2023-02-14T01:10:46.568Z,0.30
2023-02-14T01:13:21.034Z,0.20
2023-02-14T01:15:58.051Z,0.20
2023-02-14T01:18:25.374Z,0.47
2023-02-14T01:20:59.281Z,0.37
2023-02-14T01:23:33.134Z,0.20
2023-02-14T01:26:12.043Z,0.20
2023-02-14T01:28:46.068Z,0.20
2023-02-14T01:31:29.231Z,0.27
2023-02-14T01:34:06.456Z,0.20
2023-02-14T01:36:37.768Z,0.20
2023-02-14T01:39:15.114Z,0.30
2023-02-14T01:41:51.068Z,0.17
2023-02-14T01:44:18.324Z,0.10
2023-02-14T01:46:47.985Z,0.20
2023-02-14T01:49:22.166Z,0.10
2023-02-14T01:52:04.470Z,1.33
2023-02-14T01:54:34.291Z,0.20
2023-02-14T01:57:13.089Z,1.07
2023-02-14T01:59:56.075Z,0.20
2023-02-14T02:02:30.133Z,0.10
2023-02-14T02:05:04.047Z,0.40
2023-02-14T02:07:31.595Z,1.57
2023-02-14T02:10:13.081Z,0.40
2023-02-14T02:12:47.066Z,0.73
2023-02-14T02:15:21.073Z,0.30
2023-02-14T02:18:02.187Z,0.20
2023-02-14T02:21:19.093Z,0.70
2023-02-14T02:24:18.062Z,1.10
2023-02-14T02:27:10.092Z,0.90
2023-02-14T02:30:24.219Z,1.10
2023-02-14T02:33:07.042Z,4.13
2023-02-14T02:36:04.059Z,1.20
2023-02-14T02:39:03.053Z,2.83
2023-02-14T02:41:52.049Z,1.87
2023-02-14T02:44:38.088Z,1.70
2023-02-14T02:47:35.067Z,2.00
2023-02-14T02:50:43.907Z,4.03
2023-02-14T02:53:31.090Z,2.87
2023-02-14T02:56:22.096Z,2.43
2023-02-14T02:59:01.072Z,1.73
2023-02-14T03:01:33.032Z,1.83
2023-02-14T03:04:37.084Z,1.33
2023-02-14T03:07:34.757Z,2.47
2023-02-14T03:10:20.366Z,2.23
2023-02-14T03:13:30.916Z,2.13
2023-02-14T03:16:36.081Z,2.93
2023-02-14T03:19:40.351Z,2.37
2023-02-14T03:22:41.070Z,2.27
2023-02-14T03:25:49.076Z,1.87
2023-02-14T03:28:44.089Z,3.23
2023-02-14T03:32:04.171Z,3.03
2023-02-14T03:35:07.078Z,3.70
2023-02-14T03:38:10.061Z,3.03
2023-02-14T03:40:49.430Z,4.57
2023-02-14T03:43:56.079Z,4.57
2023-02-14T03:46:42.122Z,3.57
2023-02-14T03:49:30.060Z,3.17
2023-02-14T03:51:59.548Z,3.17
2023-02-14T03:54:36.074Z,4.47
2023-02-14T03:57:27.329Z,3.80
2023-02-14T04:00:02.083Z,4.27
2023-02-14T04:02:52.060Z,7.67
2023-02-14T04:05:34.117Z,4.10
2023-02-14T04:08:08.068Z,6.60
2023-02-14T04:10:35.614Z,4.83
2023-02-14T04:13:10.126Z,6.20
2023-02-14T04:15:44.089Z,4.53
2023-02-14T04:18:37.071Z,4.10
2023-02-14T04:21:05.828Z,3.87
2023-02-14T04:23:40.077Z,4.73
2023-02-14T04:26:07.381Z,6.93
2023-02-14T04:28:42.075Z,5.30
2023-02-14T04:31:11.413Z,4.80
2023-02-14T04:33:46.139Z,5.60
2023-02-14T04:36:20.081Z,8.23
2023-02-14T04:38:54.079Z,7.27
2023-02-14T04:41:28.115Z,6.50
2023-02-14T04:43:55.495Z,5.90
2023-02-14T04:46:29.120Z,6.23
2023-02-14T04:48:56.657Z,6.90
2023-02-14T04:51:32.624Z,6.77
2023-02-14T04:54:06.086Z,7.63
2023-02-14T04:56:33.489Z,6.50
2023-02-14T04:59:07.101Z,8.10
2023-02-14T05:01:34.572Z,11.13
2023-02-14T05:04:09.117Z,10.00
2023-02-14T05:06:43.092Z,8.07
2023-02-14T05:09:10.551Z,8.63
2023-02-14T05:11:45.153Z,7.67
2023-02-14T05:14:13.840Z,11.00
2023-02-14T05:16:48.168Z,9.20
2023-02-14T05:19:22.092Z,8.13
2023-02-14T05:21:49.452Z,9.40
2023-02-14T05:24:31.102Z,10.33
2023-02-14T05:26:58.442Z,11.30
2023-02-14T05:29:32.107Z,10.50
2023-02-14T05:31:59.502Z,12.80
2023-02-14T05:34:33.075Z,10.30
2023-02-14T05:37:02.493Z,12.23
2023-02-14T05:39:36.120Z,16.60
2023-02-14T05:44:43.093Z,12.03
2023-02-14T05:47:12.953Z,12.90
2023-02-14T05:49:48.110Z,8.97
2023-02-14T05:52:22.101Z,8.73
2023-02-14T05:54:50.599Z,7.20
2023-02-14T05:57:25.174Z,10.40
2023-02-14T06:02:06.290Z,6.70
2023-02-14T06:04:42.718Z,4.77
2023-02-14T06:07:17.039Z,4.87
2023-02-14T06:09:45.329Z,3.90
2023-02-14T06:12:18.981Z,5.80
2023-02-14T06:14:53.009Z,4.83
2023-02-14T06:17:20.428Z,3.60
2023-02-14T06:19:55.211Z,5.07
2023-02-14T06:22:22.654Z,4.13
2023-02-14T06:24:57.013Z,5.23
2023-02-14T06:27:24.384Z,6.10
2023-02-14T06:29:59.101Z,7.30
2023-02-14T06:32:26.595Z,5.87
2023-02-14T06:35:01.092Z,6.40
2023-02-14T06:37:28.647Z,4.90
2023-02-14T06:40:04.020Z,5.53
2023-02-14T06:42:38.068Z,4.70
2023-02-14T06:45:13.029Z,4.20
2023-02-14T06:47:40.574Z,7.27
2023-02-14T06:50:15.046Z,5.23
2023-02-14T06:52:43.008Z,5.87
2023-02-14T06:55:19.108Z,4.00
2023-02-14T06:57:54.043Z,4.27
2023-02-14T07:00:28.037Z,4.30
2023-02-14T07:03:02.203Z,4.93
2023-02-14T07:05:36.112Z,5.87
2023-02-14T07:08:03.799Z,4.83
2023-02-14T07:10:38.018Z,2.67
2023-02-14T07:13:12.016Z,3.30
2023-02-14T07:15:39.764Z,4.10
2023-02-14T07:18:17.038Z,3.80
2023-02-14T07:20:52.053Z,2.27
2023-02-14T07:23:19.515Z,2.80
2023-02-14T07:25:53.111Z,2.33
2023-02-14T07:28:20.581Z,2.40
2023-02-14T07:30:55.089Z,2.20
2023-02-14T07:33:22.675Z,2.13
2023-02-14T07:35:56.995Z,1.90
2023-02-14T07:38:24.889Z,1.63
2023-02-14T07:41:03.068Z,2.77
2023-02-14T07:43:30.741Z,1.60
2023-02-14T07:46:06.098Z,1.40
2023-02-14T07:48:34.478Z,1.23
2023-02-14T07:51:09.045Z,1.80
2023-02-14T07:53:36.520Z,1.47
2023-02-14T07:56:11.003Z,1.43
2023-02-14T07:58:38.476Z,2.40
2023-02-14T08:01:19.139Z,1.00
2023-02-14T08:03:56.059Z,1.20
2023-02-14T08:06:26.058Z,1.10
2023-02-14T08:09:00.071Z,1.10
2023-02-14T08:11:46.035Z,0.57
2023-02-14T08:14:20.069Z,0.57
2023-02-14T08:16:54.041Z,0.50
2023-02-14T08:19:21.479Z,0.75
2023-02-14T08:21:57.015Z,0.52
2023-02-14T08:24:31.087Z,0.90
2023-02-14T08:27:06.057Z,0.40
2023-02-14T08:29:41.091Z,0.50
2023-02-14T08:32:15.210Z,2.22
2023-02-14T08:34:43.725Z,2.75
2023-02-14T08:37:18.395Z,2.22
2023-02-14T08:39:54.084Z,1.95
2023-02-14T08:42:21.646Z,1.83
2023-02-14T08:44:56.126Z,2.47
2023-02-14T08:47:24.281Z,3.17
2023-02-14T08:49:58.034Z,2.35
2023-02-14T08:52:26.526Z,15.13
2023-02-14T08:55:01.021Z,2.95
2023-02-14T08:57:36.075Z,2.47
2023-02-14T09:00:12.076Z,2.75
2023-02-14T09:02:46.267Z,2.00
2023-02-14T09:05:20.054Z,3.00
2023-02-14T09:07:47.687Z,4.00
2023-02-14T09:10:22.058Z,3.03
2023-02-14T09:12:50.441Z,3.35
2023-02-14T09:15:25.036Z,3.03
2023-02-14T09:17:52.723Z,4.30
2023-02-14T09:20:27.023Z,2.75
2023-02-14T09:22:57.602Z,3.15
2023-02-14T09:25:31.072Z,3.30
2023-02-14T09:28:08.025Z,4.10
2023-02-14T09:30:42.075Z,4.82
2023-02-14T09:33:16.046Z,3.63
2023-02-14T09:35:43.554Z,4.05
2023-02-14T09:38:25.034Z,3.22
2023-02-14T09:40:52.584Z,3.60
2023-02-14T09:43:45.040Z,4.35
2023-02-14T09:46:16.416Z,3.55
2023-02-14T09:48:54.067Z,4.20
2023-02-14T09:51:25.875Z,6.25
2023-02-14T09:54:08.044Z,3.45
2023-02-14T09:56:51.739Z,5.35
2023-02-14T09:59:41.065Z,4.95
2023-02-14T10:02:41.084Z,6.38
2023-02-14T10:05:37.094Z,6.50
2023-02-14T10:08:41.112Z,5.88
2023-02-14T10:11:20.531Z,5.75
2023-02-14T10:14:11.106Z,6.50
2023-02-14T10:16:49.692Z,5.25
2023-02-14T10:19:35.084Z,6.20
2023-02-14T10:22:07.191Z,5.43
2023-02-14T10:25:04.050Z,6.18
2023-02-14T10:27:49.148Z,5.70
2023-02-14T10:30:30.125Z,6.78
2023-02-14T10:33:23.080Z,5.50
2023-02-14T10:36:12.084Z,5.45
2023-02-14T10:39:07.274Z,4.82
2023-02-14T10:41:52.092Z,6.47
2023-02-14T10:45:07.053Z,6.07
2023-02-14T10:47:57.130Z,6.95
2023-02-14T10:50:54.130Z,7.28
2023-02-14T10:53:40.096Z,5.90
2023-02-14T10:56:20.098Z,5.63
2023-02-14T10:58:57.028Z,6.43
2023-02-14T11:01:38.132Z,6.10
2023-02-14T11:04:08.744Z,5.78
2023-02-14T11:06:43.088Z,5.13
2023-02-14T11:09:19.067Z,5.07
2023-02-14T11:11:59.112Z,5.85
2023-02-14T11:14:31.522Z,6.22
2023-02-14T11:17:07.111Z,6.25
2023-02-14T11:19:45.153Z,4.75
2023-02-14T11:22:30.005Z,4.22
2023-02-14T11:25:12.117Z,4.28
2023-02-14T11:27:43.304Z,5.07
2023-02-14T11:30:49.152Z,4.55
2023-02-14T11:33:39.829Z,4.00
2023-02-14T11:36:20.091Z,4.20
2023-02-14T11:39:03.211Z,5.43
2023-02-14T11:41:55.100Z,4.45
2023-02-14T11:44:26.194Z,5.07
2023-02-14T11:47:02.978Z,6.18
2023-02-14T11:49:35.382Z,6.18
2023-02-14T11:52:18.116Z,5.78
2023-02-14T11:54:50.275Z,4.32
2023-02-14T11:57:41.100Z,4.75
2023-02-14T12:00:27.408Z,4.80
2023-02-14T12:03:12.086Z,6.78
2023-02-14T12:05:49.662Z,4.78
2023-02-14T12:08:32.156Z,5.72
2023-02-14T12:11:05.767Z,5.25
2023-02-14T12:13:40.153Z,7.13
2023-02-14T12:16:28.389Z,6.93
2023-02-14T12:19:17.996Z,9.30
2023-02-14T12:22:00.128Z,6.60
2023-02-14T12:24:35.027Z,4.90
2023-02-14T12:27:21.142Z,4.93
2023-02-14T12:30:16.672Z,5.82
2023-02-14T12:32:57.113Z,4.68
2023-02-14T12:35:44.384Z,5.32
2023-02-14T12:38:32.146Z,5.55
2023-02-14T12:41:19.119Z,5.93
2023-02-14T12:43:56.878Z,5.35
2023-02-14T12:46:45.082Z,7.15
2023-02-14T12:49:38.615Z,8.38
2023-02-14T12:52:43.146Z,6.75
2023-02-14T12:55:36.233Z,6.75
2023-02-14T12:58:27.142Z,8.02
2023-02-14T13:01:29.067Z,6.53
2023-02-14T13:04:30.162Z,8.15
2023-02-14T13:07:27.313Z,5.93
2023-02-14T13:10:24.157Z,6.05
2023-02-14T13:13:29.788Z,7.93
2023-02-14T13:16:43.145Z,6.55
2023-02-14T13:19:48.207Z,7.43
2023-02-14T13:22:27.381Z,9.00
2023-02-14T13:25:16.591Z,6.65
2023-02-14T13:27:44.167Z,8.68
2023-02-14T13:30:40.633Z,7.10
2023-02-14T13:33:34.044Z,6.85
2023-02-14T13:36:14.575Z,8.45
2023-02-14T13:38:49.962Z,8.82
2023-02-14T13:41:25.590Z,7.82
2023-02-14T13:43:58.179Z,9.65
2023-02-14T13:46:40.607Z,8.20
2023-02-14T13:49:35.571Z,8.30
2023-02-14T13:52:11.588Z,8.52
2023-02-14T13:54:54.581Z,11.50
2023-02-14T13:57:43.610Z,14.70
2023-02-14T14:00:26.874Z,10.60
2023-02-14T14:03:07.657Z,14.18
2023-02-14T14:05:49.575Z,11.70
2023-02-14T14:08:33.615Z,11.43
2023-02-14T14:11:38.631Z,13.38
2023-02-14T14:14:42.663Z,12.95
2023-02-14T14:17:21.618Z,10.20
2023-02-14T14:19:56.615Z,14.50
2023-02-14T14:22:25.976Z,13.00
2023-02-14T14:25:05.830Z,14.18
2023-02-14T14:27:46.587Z,10.80
2023-02-14T14:30:39.653Z,10.00
2023-02-14T14:33:30.628Z,12.30
2023-02-14T14:36:02.461Z,16.75
2023-02-14T14:38:38.669Z,12.75
2023-02-14T14:41:14.009Z,11.00
2023-02-14T14:43:48.605Z,14.07
2023-02-14T14:46:17.001Z,16.13
2023-02-14T14:48:55.122Z,11.77
2023-02-14T14:51:28.422Z,18.45
2023-02-14T14:54:36.644Z,16.08
2023-02-14T14:57:05.198Z,12.63
2023-02-14T14:59:46.619Z,14.32
2023-02-14T15:02:33.690Z,11.25
2023-02-14T15:05:29.609Z,13.15
2023-02-14T15:08:04.614Z,12.00
2023-02-14T15:10:42.033Z,12.65
2023-02-14T15:13:32.265Z,18.50
2023-02-14T15:16:07.659Z,11.05
2023-02-14T15:18:41.667Z,13.65
2023-02-14T15:21:15.619Z,14.20
2023-02-14T15:23:51.631Z,14.30
2023-02-14T15:26:27.228Z,15.82
2023-02-14T15:29:11.628Z,14.80
2023-02-14T15:31:41.117Z,14.93
2023-02-14T15:34:16.631Z,18.15
2023-02-14T15:36:49.111Z,17.20
2023-02-14T15:39:24.631Z,15.23
2023-02-14T15:41:55.698Z,15.35
2023-02-14T15:44:31.651Z,14.75
2023-02-14T15:47:05.860Z,18.30
2023-02-14T15:49:43.648Z,22.20
2023-02-14T15:52:22.920Z,17.48
2023-02-14T15:54:56.644Z,20.92
2023-02-14T15:57:31.174Z,20.70
2023-02-14T16:00:05.650Z,20.48
2023-02-14T16:02:48.680Z,17.55
2023-02-14T16:05:27.702Z,20.05
2023-02-14T16:08:14.625Z,16.33
2023-02-14T16:10:42.106Z,21.77
2023-02-14T16:13:25.648Z,17.17
2023-02-14T16:16:06.688Z,22.67
2023-02-14T16:18:48.651Z,34.97
2023-02-14T16:21:31.659Z,29.30
2023-02-14T16:24:11.322Z,17.40
2023-02-14T16:26:47.659Z,20.43
2023-02-14T16:29:18.889Z,51.33
2023-02-14T16:32:16.181Z,75.33
2023-02-14T16:34:45.680Z,20.43
2023-02-14T16:37:37.648Z,27.77
2023-02-14T16:40:14.133Z,25.67
2023-02-14T16:42:48.693Z,22.37
2023-02-14T16:45:20.761Z,23.17
2023-02-14T16:47:55.622Z,24.33
2023-02-14T16:50:23.216Z,22.97
2023-02-14T16:52:58.644Z,21.23
2023-02-14T16:55:36.635Z,21.67
2023-02-14T16:58:04.338Z,25.37
2023-02-14T17:00:39.670Z,22.57
2023-02-14T17:03:14.784Z,26.00
2023-02-14T17:05:49.628Z,25.40
2023-02-14T17:08:24.628Z,21.00
2023-02-14T17:10:52.780Z,20.93
2023-02-14T17:13:30.683Z,26.77
2023-02-14T17:16:01.476Z,22.53
2023-02-14T17:18:38.714Z,24.27
2023-02-14T17:21:09.781Z,26.43
2023-02-14T17:23:43.760Z,24.77
2023-02-14T17:26:11.402Z,22.70
2023-02-14T17:28:45.734Z,30.53
2023-02-14T17:31:20.815Z,26.97
2023-02-14T17:33:54.716Z,24.23
2023-02-14T17:36:30.724Z,25.00
2023-02-14T17:39:06.717Z,33.20
2023-02-14T17:41:40.772Z,50.47
2023-02-14T17:44:08.427Z,32.23
2023-02-14T17:46:37.878Z,38.00
2023-02-14T17:49:11.698Z,32.47
2023-02-14T17:51:39.135Z,27.27
2023-02-14T17:54:13.697Z,27.40
2023-02-14T17:56:41.287Z,29.77
2023-02-14T17:59:14.758Z,32.07
2023-02-14T18:01:48.920Z,36.17
2023-02-14T18:04:22.776Z,31.27
2023-02-14T18:06:50.210Z,29.40
2023-02-14T18:09:25.714Z,33.23
2023-02-14T18:11:59.709Z,27.63
2023-02-14T18:14:27.219Z,35.07
2023-02-14T18:16:54.671Z,28.27
2023-02-14T18:19:29.708Z,25.20
2023-02-14T18:21:57.158Z,26.77
2023-02-14T18:24:31.739Z,27.20
2023-02-14T18:26:59.149Z,29.70
2023-02-14T18:29:33.702Z,25.27
2023-02-14T18:32:01.144Z,25.47
2023-02-14T18:34:36.755Z,28.80
2023-02-14T18:37:12.773Z,28.10
2023-02-14T18:39:46.745Z,24.30
2023-02-14T18:42:20.677Z,24.57
2023-02-14T18:44:55.705Z,25.73
2023-02-14T18:47:30.724Z,28.17
2023-02-14T18:50:04.741Z,29.47
2023-02-14T18:52:41.338Z,23.70
2023-02-14T18:55:09.150Z,24.57
2023-02-14T18:57:43.761Z,27.80
2023-02-14T19:00:12.959Z,39.43
2023-02-14T19:02:53.738Z,34.73
2023-02-14T19:05:37.081Z,26.93
2023-02-14T19:08:05.714Z,26.10
2023-02-14T19:10:39.749Z,29.63
2023-02-14T19:13:13.719Z,30.00
2023-02-14T19:15:47.693Z,27.87
2023-02-14T19:18:16.231Z,27.03
2023-02-14T19:20:49.758Z,26.07
2023-02-14T19:23:23.734Z,30.03
2023-02-14T19:25:51.111Z,25.23
2023-02-14T19:28:24.721Z,26.83
2023-02-14T19:31:00.206Z,25.13
2023-02-14T19:33:33.756Z,29.20
2023-02-14T19:36:08.716Z,27.53
2023-02-14T19:38:36.380Z,25.87
2023-02-14T19:41:10.710Z,41.77
2023-02-14T19:43:39.795Z,27.37
2023-02-14T19:46:13.801Z,27.53
2023-02-14T19:48:41.600Z,27.47
2023-02-14T19:51:13.758Z,25.37
2023-02-14T19:53:48.828Z,29.37
2023-02-14T19:56:27.791Z,27.70
2023-02-14T19:59:04.812Z,25.80
2023-02-14T20:01:49.585Z,29.20
2023-02-14T20:04:32.878Z,28.33
2023-02-14T20:07:06.789Z,26.80
2023-02-14T20:09:40.792Z,29.40
2023-02-14T20:12:10.808Z,26.67
2023-02-14T20:14:51.258Z,24.93
2023-02-14T20:17:20.580Z,23.30
2023-02-14T20:19:55.772Z,21.33
2023-02-14T20:22:23.276Z,23.57
2023-02-14T20:24:57.782Z,22.97
2023-02-14T20:27:31.078Z,21.00
2023-02-14T20:30:07.089Z,24.27
2023-02-14T20:32:35.315Z,25.97
2023-02-14T20:35:09.807Z,22.00
2023-02-14T20:37:38.807Z,21.43
2023-02-14T20:40:16.841Z,19.57
2023-02-14T20:42:48.964Z,22.23
2023-02-14T20:45:22.918Z,21.00
2023-02-14T20:47:54.045Z,22.50
2023-02-14T20:50:28.741Z,20.27
2023-02-14T20:52:56.319Z,21.77
2023-02-14T20:55:30.942Z,23.53
2023-02-14T20:58:06.981Z,22.70
2023-02-14T21:00:41.400Z,25.70
2023-02-14T21:03:16.024Z,21.33
2023-02-14T21:05:56.759Z,25.07
2023-02-14T21:08:24.239Z,24.13
2023-02-14T21:10:57.773Z,18.00
2023-02-14T21:13:31.758Z,23.57
2023-02-14T21:16:17.795Z,22.17
2023-02-14T21:18:57.794Z,22.07
2023-02-14T21:21:36.084Z,23.03
2023-02-14T21:24:15.273Z,22.03
2023-02-14T21:26:52.834Z,21.93
2023-02-14T21:29:26.826Z,21.07
2023-02-14T21:32:03.663Z,21.83
2023-02-14T21:34:37.819Z,22.37
2023-02-14T21:37:12.826Z,21.60
2023-02-14T21:39:40.421Z,19.07
2023-02-14T21:42:09.335Z,20.90
2023-02-14T21:45:02.337Z,20.33
2023-02-14T21:47:36.758Z,20.10
2023-02-14T21:50:29.779Z,15.60
2023-02-14T21:53:04.086Z,19.63
2023-02-14T21:55:31.521Z,19.00
2023-02-14T21:58:05.825Z,18.30
2023-02-14T22:00:33.264Z,20.60
2023-02-14T22:03:13.755Z,22.23
2023-02-14T22:05:47.787Z,17.23
2023-02-14T22:08:23.742Z,18.43
2023-02-14T22:10:51.294Z,20.03
2023-02-14T22:13:24.784Z,19.07
2023-02-14T22:15:52.518Z,21.70
2023-02-14T22:18:27.278Z,18.77
2023-02-14T22:21:01.085Z,19.53
2023-02-14T22:23:38.768Z,22.37
2023-02-14T22:26:29.194Z,21.30
2023-02-14T22:29:00.433Z,24.30
2023-02-14T22:31:36.200Z,21.73
2023-02-14T22:34:09.370Z,19.40
2023-02-14T22:36:44.480Z,20.00
2023-02-14T22:39:22.472Z,17.67
2023-02-14T22:41:56.543Z,17.23
2023-02-14T22:44:30.221Z,13.17
2023-02-14T22:46:57.788Z,14.40
2023-02-14T22:49:33.332Z,12.07
2023-02-14T22:52:00.705Z,11.73
2023-02-14T22:54:35.233Z,10.77
2023-02-14T22:57:09.473Z,13.60
2023-02-14T22:59:41.729Z,11.40
2023-02-14T23:02:17.145Z,9.23
2023-02-14T23:05:01.807Z,9.27
2023-02-14T23:07:29.124Z,8.63
2023-02-14T23:10:04.228Z,6.33
2023-02-14T23:12:50.395Z,8.13
2023-02-14T23:15:43.297Z,5.80
2023-02-14T23:18:31.744Z,7.40
2023-02-14T23:21:26.300Z,3.80
2023-02-14T23:23:53.645Z,3.87
2023-02-14T23:26:27.226Z,3.90
2023-02-14T23:28:55.767Z,8.30
2023-02-14T23:31:23.215Z,3.90
2023-02-14T23:33:59.227Z,4.50
2023-02-14T23:36:33.170Z,3.80
2023-02-14T23:39:07.244Z,4.10
2023-02-14T23:41:49.896Z,3.57
2023-02-14T23:44:35.182Z,3.20
2023-02-14T23:47:13.170Z,3.43
2023-02-14T23:49:41.857Z,2.80
2023-02-14T23:52:18.693Z,3.30
2023-02-14T23:54:52.149Z,3.57
2023-02-14T23:57:26.223Z,3.40
